Flight Track Log - Related Links

Times and Time Zones

All times are in EDT time to prevent confusion due to time zone crossing. See the N923SA flight status page for this flight to view local times or setup timezone preferences in your user account.

Time Position Orientation Groundspeed Altitude Reporting Facility
EDT Latitude Longitude Course Direction KTS MPH feet Rate Location/Type
Sat 09:56:17 AM 30.6861 -81.4239 351° North 91 105 4,500  Level Jacksonville Center
Sat 09:57:17 AM 30.7111 -81.4283 351° North 86 99 4,500 -50 Level Jacksonville Center
Sat 09:58:17 AM 30.7361 -81.4303 356° North 86 99 4,400 -50 Descending Jacksonville Center
Sat 09:59:17 AM 30.7614 -81.4300 North 86 99 4,400 -50 Level Jacksonville Center
Sat 10:00:17 AM 30.7864 -81.4272 North 86 99 4,300 -150 Descending Jacksonville Center
Sat 10:01:17 AM 30.8114 -81.4219 10° North 86 99 4,100 -250 Descending Jacksonville Center
Sat 10:02:17 AM 30.8364 -81.4142 15° North 86 99 3,800 -400 Descending Jacksonville Center
Sat 10:03:17 AM 30.8614 -81.4092 10° North 86 99 3,300 -450 Descending Jacksonville Center
Sat 10:04:17 AM 30.8842 -81.4039 11° North 86 99 2,900 -350 Descending Jacksonville Center
Sat 10:05:17 AM 30.9114 -81.3986 North 86 99 2,600 -250 Descending Jacksonville Center
Sat 10:06:17 AM 30.9342 -81.4006 356° North 86 99 2,400 -100 Descending Jacksonville Center
Sat 10:07:17 AM 30.9572 -81.4003 North 86 99 2,400 50 Level Jacksonville Center
Sat 10:08:17 AM 30.9781 -81.4022 355° North 86 99 2,500 50 Climbing Jacksonville Center
Sat 11:11:52 AM 30.5458 -81.3994 180° South 100 115 5,600 42 Climbing Jacksonville Center
Sat 11:12:53 AM 30.5208 -81.3950 171° South 98 113 5,200 -590 Descending Jacksonville Center
Sat 11:13:54 AM 30.4894 -81.3908 173° South 104 120 4,400 -738 Descending Jacksonville Center
Sat 11:14:55 AM 30.4581 -81.3864 173° South 109 125 3,700 -492 Descending Jacksonville Center
Sat 11:15:56 AM 30.4308 -81.3869 181° South 101 116 3,400 -98 Descending Jacksonville Center
Sat 11:16:57 AM 30.4039 -81.3850 176° South 94 108 3,500 49 Climbing Jacksonville Center
Sat 11:17:58 AM 30.3767 -81.3828 176° South 96 110 3,500  Level Jacksonville Center
Sat 11:18:59 AM 30.3472 -81.3786 173° South 101 116 3,500 -344 Level Jacksonville Center
Sat 11:20:00 AM 30.3181 -81.3789 180° South 105 121 2,800 -393 Descending Jacksonville Center
Sat 11:21:01 AM 30.2889 -81.3769 177° South 98 113 2,700 -49 Descending Jacksonville Center
Sat 11:22:02 AM 30.2617 -81.3750 176° South 99 114 2,700 -49 Level Jacksonville Center
Sat 11:23:03 AM 30.2325 -81.3708 173° South 102 117 2,600 -49 Descending Jacksonville Center
Sat 11:24:04 AM 30.2050 -81.3617 164° South 97 112 2,600 103 Level Jacksonville Center
Sat 11:24:59 AM 30.1778 -81.3547 168° South 100 115 2,800 207 Climbing Jacksonville Center
Sat 11:26:00 AM 30.1547 -81.3481 166° South 90 104 3,000 98 Climbing Jacksonville Center
Sat 11:28:02 AM 30.1025 -81.3294 163° South 96 110 3,100 131 Climbing Jacksonville Center
Sat 11:29:03 AM 30.0794 -81.3228 166° South 91 105 3,400 259 Climbing Jacksonville Center
Sat 11:29:58 AM 30.0542 -81.3183 171° South 97 112 3,600 103 Climbing Jacksonville Center
Sat 11:30:59 AM 30.0269 -81.3067 160° South 101 116 3,600  Level Jacksonville Center
Sat 11:32:06 AM 29.9975 -81.2953 161° South 99 114 3,600  Level Jacksonville Center
Sat 11:33:01 AM 29.9725 -81.2908 171° South 99 114 3,600  Level Jacksonville Center
Sat 11:33:33 AM 29.9600 -81.2839 154° Southeast 99 114 3,600  Level Jacksonville Center

Login

Don't have an account? Register now (free) for customized features, flight alerts, and more!